Time;durP1;ratioP1;P1;durP2;ratioP2;P2;SDS_P1;SDS_P2;PMS_P1;PMS_P2;Temp;Humidity;BMP_temperature;BMP_pressure;BME280_temperature;BME280_humidity;BME280_pressure;Samples;Min_cycle;Max_cycle;Signal;HPM_P1;HPM_P2
2023/10/27 00:01:59;;;;;;;1.27;1.27;;;11.30;99.90;;;;;;5035274;28;20051;-93
2023/10/27 00:04:33;;;;;;;1.27;1.27;;;11.60;99.90;;;;;;5034444;28;20041;-94
2023/10/27 00:06:59;;;;;;;1.63;1.55;;;11.40;99.90;;;;;;5036070;28;20045;-93
2023/10/27 00:09:31;;;;;;;1.40;1.38;;;11.60;99.90;;;;;;5011400;28;20040;-94
2023/10/27 00:11:57;;;;;;;1.30;1.30;;;11.20;99.90;;;;;;5022941;28;20040;-94
2023/10/27 00:14:26;;;;;;;1.20;1.20;;;11.70;99.90;;;;;;5024269;28;20131;-92
2023/10/27 00:16:54;;;;;;;1.35;1.35;;;11.20;99.90;;;;;;5035812;28;20119;-90
2023/10/27 00:19:20;;;;;;;1.25;1.25;;;11.40;99.90;;;;;;5044013;28;20076;-89
2023/10/27 00:21:45;;;;;;;1.27;1.27;;;11.30;99.90;;;;;;5016734;28;20075;-91
2023/10/27 00:24:12;;;;;;;1.10;1.10;;;11.60;99.90;;;;;;5017691;28;20127;-87
2023/10/27 00:26:38;;;;;;;1.17;1.17;;;11.60;99.90;;;;;;5062702;28;20052;-90
2023/10/27 00:29:03;;;;;;;1.13;1.13;;;11.40;99.90;;;;;;5036691;28;20041;-90
2023/10/27 00:31:29;;;;;;;1.10;1.10;;;11.40;99.90;;;;;;5036776;28;20592;-90
2023/10/27 00:33:55;;;;;;;1.10;1.10;;;11.50;99.90;;;;;;5034532;28;20139;-89
2023/10/27 00:36:20;;;;;;;0.90;0.90;;;11.50;99.90;;;;;;5020317;28;20505;-94
2023/10/27 00:38:48;;;;;;;1.08;1.08;;;11.50;99.90;;;;;;5017298;28;20118;-92
2023/10/27 00:41:14;;;;;;;1.10;1.10;;;11.50;99.90;;;;;;5016136;28;20056;-92
2023/10/27 00:43:40;;;;;;;1.10;1.10;;;11.30;99.90;;;;;;5017705;28;20045;-90
2023/10/27 00:46:05;;;;;;;1.20;1.20;;;11.30;99.90;;;;;;5038072;28;20056;-91
2023/10/27 00:48:31;;;;;;;1.00;1.00;;;11.40;99.90;;;;;;5037903;28;20143;-89
2023/10/27 00:50:58;;;;;;;1.00;1.00;;;11.30;99.90;;;;;;5023075;28;20047;-90
2023/10/27 00:53:24;;;;;;;1.00;1.00;;;11.10;99.90;;;;;;5045609;28;20037;-91
2023/10/27 00:55:50;;;;;;;1.08;1.08;;;11.30;99.90;;;;;;5018716;28;20049;-90
2023/10/27 00:58:16;;;;;;;1.00;1.00;;;11.40;99.90;;;;;;5035716;28;20064;-88
2023/10/27 01:00:42;;;;;;;1.00;1.00;;;11.10;99.90;;;;;;5020427;28;20045;-89
2023/10/27 01:03:08;;;;;;;1.10;1.10;;;11.40;99.90;;;;;;5017616;28;20083;-89
2023/10/27 01:05:34;;;;;;;1.00;1.00;;;11.10;99.90;;;;;;5014387;28;20072;-89
2023/10/27 01:08:00;;;;;;;1.00;1.00;;;11.40;99.90;;;;;;5039003;28;20498;-88
2023/10/27 01:10:26;;;;;;;1.00;1.00;;;11.30;99.90;;;;;;5028892;28;20045;-91
2023/10/27 01:12:52;;;;;;;1.20;1.20;;;11.10;99.90;;;;;;5050469;28;20513;-89
2023/10/27 01:15:18;;;;;;;1.20;1.20;;;11.10;99.90;;;;;;5039373;28;20045;-90
2023/10/27 01:17:44;;;;;;;1.02;1.02;;;11.30;99.90;;;;;;5033515;28;20040;-90
2023/10/27 01:20:10;;;;;;;1.20;1.20;;;11.20;99.90;;;;;;5015891;28;20536;-90
2023/10/27 01:22:45;;;;;;;1.00;1.00;;;11.40;99.90;;;;;;5019138;28;20139;-89
2023/10/27 01:25:12;;;;;;;1.00;1.00;;;11.40;99.90;;;;;;5018680;28;20041;-92
2023/10/27 01:27:38;;;;;;;1.15;1.15;;;11.20;99.90;;;;;;5023765;28;20106;-90
2023/10/27 01:30:04;;;;;;;1.13;1.13;;;11.30;99.90;;;;;;5035060;28;20052;-89
2023/10/27 01:32:30;;;;;;;1.10;1.10;;;11.30;99.90;;;;;;5018014;28;20044;-87
2023/10/27 01:34:55;;;;;;;1.10;1.10;;;11.10;99.90;;;;;;5059061;28;20056;-89
2023/10/27 01:37:22;;;;;;;1.00;1.00;;;11.10;99.90;;;;;;5013690;28;20402;-88
2023/10/27 01:39:48;;;;;;;1.10;1.10;;;11.10;99.90;;;;;;5038173;28;20064;-89
2023/10/27 01:42:14;;;;;;;1.17;1.17;;;11.40;99.90;;;;;;5038695;28;20083;-90
2023/10/27 01:44:40;;;;;;;1.10;1.10;;;11.10;99.90;;;;;;5029258;28;20061;-87
2023/10/27 01:47:05;;;;;;;1.17;1.17;;;11.20;99.90;;;;;;5020359;28;20065;-90
2023/10/27 01:49:31;;;;;;;1.00;1.00;;;11.40;99.90;;;;;;5018741;28;20056;-91
2023/10/27 01:51:57;;;;;;;1.20;1.20;;;11.20;99.90;;;;;;5021466;28;20082;-91
2023/10/27 01:54:23;;;;;;;1.10;1.10;;;11.30;99.90;;;;;;5040777;28;20048;-90
2023/10/27 01:56:48;;;;;;;1.10;1.10;;;11.20;99.90;;;;;;5039048;28;20033;-91
2023/10/27 01:59:14;;;;;;;1.00;1.00;;;11.40;99.90;;;;;;5030767;28;20099;-89
2023/10/27 02:01:40;;;;;;;1.00;1.00;;;11.00;99.90;;;;;;5053617;28;20536;-92
2023/10/27 02:04:06;;;;;;;0.93;0.93;;;11.10;99.90;;;;;;5022450;28;20752;-87
2023/10/27 02:06:31;;;;;;;1.35;1.25;;;11.00;99.90;;;;;;5037191;28;20063;-89
2023/10/27 02:08:57;;;;;;;1.00;1.00;;;11.10;99.90;;;;;;5021454;28;20060;-90
2023/10/27 02:11:23;;;;;;;1.15;1.15;;;11.10;99.90;;;;;;5009018;28;20056;-88
2023/10/27 02:13:49;;;;;;;1.10;1.10;;;10.90;99.90;;;;;;5028396;28;20029;-89
2023/10/27 02:16:15;;;;;;;1.00;1.00;;;11.30;99.90;;;;;;5020318;28;20032;-90
2023/10/27 02:18:41;;;;;;;0.93;0.93;;;11.10;99.90;;;;;;5039659;28;20075;-90
2023/10/27 02:21:06;;;;;;;1.20;1.20;;;10.90;99.90;;;;;;5021272;28;20063;-88
2023/10/27 02:23:33;;;;;;;1.10;1.10;;;11.20;99.90;;;;;;5035213;28;20045;-92
2023/10/27 02:25:59;;;;;;;1.05;1.05;;;11.40;99.90;;;;;;5030793;28;20119;-89
2023/10/27 02:28:24;;;;;;;1.20;1.20;;;11.30;99.90;;;;;;5042179;28;20112;-90
2023/10/27 02:30:50;;;;;;;1.00;1.00;;;11.00;99.90;;;;;;5031381;28;20489;-90
2023/10/27 02:33:16;;;;;;;1.10;1.10;;;10.90;99.90;;;;;;5027689;28;20050;-88
2023/10/27 02:35:42;;;;;;;1.10;1.10;;;11.40;99.90;;;;;;5022369;28;20056;-88
2023/10/27 02:38:08;;;;;;;1.13;1.13;;;11.40;99.90;;;;;;5034835;28;20045;-90
2023/10/27 02:40:37;;;;;;;1.10;1.10;;;11.40;99.90;;;;;;5040588;28;20463;-89
2023/10/27 02:43:03;;;;;;;1.02;1.02;;;10.90;99.90;;;;;;5044089;28;20127;-89
2023/10/27 02:45:29;;;;;;;1.00;1.00;;;11.10;99.90;;;;;;5058940;28;20040;-90
2023/10/27 02:47:55;;;;;;;1.20;1.20;;;11.40;99.90;;;;;;5053641;28;20076;-88
2023/10/27 02:50:21;;;;;;;1.05;1.05;;;11.00;99.90;;;;;;5040924;28;20075;-91
2023/10/27 02:52:47;;;;;;;0.93;0.93;;;11.40;99.90;;;;;;5023291;28;20041;-91
2023/10/27 02:55:13;;;;;;;1.00;1.00;;;11.40;99.90;;;;;;5039313;28;20052;-91
2023/10/27 02:57:40;;;;;;;1.00;1.00;;;11.50;99.90;;;;;;5026904;28;20099;-90
2023/10/27 03:00:07;;;;;;;1.13;1.13;;;11.10;99.90;;;;;;5045080;28;20049;-90
2023/10/27 03:02:34;;;;;;;1.13;1.13;;;11.30;99.90;;;;;;5027069;28;20040;-90
2023/10/27 03:04:59;;;;;;;1.10;1.10;;;11.20;99.90;;;;;;5043861;28;20075;-88
2023/10/27 03:07:27;;;;;;;1.02;1.02;;;11.10;99.90;;;;;;5021872;28;20037;-90
2023/10/27 03:09:53;;;;;;;1.20;1.20;;;11.30;99.90;;;;;;5040123;28;20684;-88
2023/10/27 03:12:19;;;;;;;1.02;1.02;;;11.50;99.90;;;;;;5049004;28;20049;-92
2023/10/27 03:14:45;;;;;;;1.02;1.02;;;11.00;99.90;;;;;;5024016;28;20045;-91
2023/10/27 03:17:11;;;;;;;1.00;1.00;;;11.40;99.90;;;;;;5040063;28;20604;-90
2023/10/27 03:19:36;;;;;;;1.00;1.00;;;11.10;99.90;;;;;;5052879;28;20067;-93
2023/10/27 03:22:04;;;;;;;1.00;1.00;;;11.10;99.90;;;;;;5035423;28;20041;-89
2023/10/27 03:24:32;;;;;;;0.90;0.90;;;11.20;99.90;;;;;;5033123;28;20043;-90
2023/10/27 03:26:58;;;;;;;1.10;1.10;;;11.40;99.90;;;;;;5032717;28;20520;-89
2023/10/27 03:29:28;;;;;;;1.23;1.23;;;11.30;99.90;;;;;;5032301;28;20082;-89
2023/10/27 03:32:01;;;;;;;0.95;0.95;;;11.10;99.90;;;;;;5034650;28;20044;-94
2023/10/27 03:34:26;;;;;;;1.10;1.10;;;11.10;99.90;;;;;;5030560;28;20045;-91
2023/10/27 03:36:52;;;;;;;0.90;0.90;;;11.10;99.90;;;;;;5031703;28;20049;-87
2023/10/27 03:39:18;;;;;;;1.00;1.00;;;11.40;99.90;;;;;;5047496;28;20051;-91
2023/10/27 03:41:43;;;;;;;0.90;0.90;;;11.00;99.90;;;;;;5043526;28;20465;-90
2023/10/27 03:44:09;;;;;;;1.00;1.00;;;11.10;99.90;;;;;;5047923;28;20481;-92
2023/10/27 03:46:35;;;;;;;1.08;1.08;;;11.10;99.90;;;;;;5039188;28;20060;-91
2023/10/27 03:49:01;;;;;;;1.10;1.10;;;11.00;99.90;;;;;;5042754;28;20367;-91
2023/10/27 03:51:26;;;;;;;1.05;1.05;;;11.20;99.90;;;;;;5026463;28;20049;-91
2023/10/27 03:53:54;;;;;;;1.10;1.10;;;11.30;99.90;;;;;;5027308;28;20474;-91
2023/10/27 03:56:20;;;;;;;1.00;1.00;;;11.00;99.90;;;;;;5024796;28;20121;-92
2023/10/27 03:58:45;;;;;;;0.93;0.93;;;11.10;99.90;;;;;;5054595;28;20100;-91
2023/10/27 04:01:11;;;;;;;0.90;0.90;;;11.20;99.90;;;;;;5021950;28;20056;-91
2023/10/27 04:03:37;;;;;;;1.00;1.00;;;11.20;99.90;;;;;;5048942;28;20110;-89
2023/10/27 04:06:03;;;;;;;1.10;1.10;;;11.00;99.90;;;;;;5025984;28;20102;-92
2023/10/27 04:08:29;;;;;;;1.00;1.00;;;11.00;99.90;;;;;;5029691;28;20045;-91
2023/10/27 04:10:55;;;;;;;1.00;1.00;;;11.00;99.90;;;;;;5029034;28;20109;-92
2023/10/27 04:13:21;;;;;;;1.00;1.00;;;11.40;99.90;;;;;;5019504;28;20037;-93
2023/10/27 04:15:47;;;;;;;1.00;1.00;;;11.30;99.90;;;;;;5029993;28;20127;-91
2023/10/27 04:18:12;;;;;;;0.90;0.90;;;11.00;99.90;;;;;;5045582;28;20037;-92
2023/10/27 04:20:39;;;;;;;1.00;1.00;;;11.10;99.90;;;;;;5043752;28;20224;-91
2023/10/27 04:23:07;;;;;;;1.10;1.10;;;11.10;99.90;;;;;;5023939;28;20048;-94
2023/10/27 04:25:35;;;;;;;1.10;1.10;;;11.30;99.90;;;;;;5018583;28;20115;-93
2023/10/27 04:28:01;;;;;;;1.00;1.00;;;11.40;99.90;;;;;;5025266;28;20095;-94
2023/10/27 04:30:27;;;;;;;1.00;1.00;;;11.10;99.90;;;;;;5037312;28;20059;-94
2023/10/27 04:32:55;;;;;;;1.00;1.00;;;11.30;99.90;;;;;;5021494;28;20200;-94
2023/10/27 04:35:21;;;;;;;1.10;1.10;;;11.20;99.90;;;;;;5023737;28;20040;-94
2023/10/27 04:37:48;;;;;;;1.00;1.00;;;11.40;99.90;;;;;;5029763;28;20063;-94
2023/10/27 04:40:14;;;;;;;1.08;1.08;;;11.00;99.90;;;;;;5049367;28;20072;-94
2023/10/27 04:42:40;;;;;;;1.00;1.00;;;11.20;99.90;;;;;;5020080;28;20556;-94
2023/10/27 04:45:07;;;;;;;1.10;1.10;;;11.30;99.90;;;;;;5016298;28;20391;-95
2023/10/27 04:47:33;;;;;;;1.00;1.00;;;11.00;99.90;;;;;;5039166;28;20042;-93
2023/10/27 04:49:59;;;;;;;1.00;1.00;;;11.10;99.90;;;;;;5025140;28;20036;-93
2023/10/27 04:52:24;;;;;;;1.10;1.10;;;11.10;99.90;;;;;;5023980;28;20179;-93
2023/10/27 04:54:50;;;;;;;1.00;1.00;;;11.10;99.90;;;;;;5022625;28;20063;-94
2023/10/27 04:57:16;;;;;;;1.00;1.00;;;11.00;99.90;;;;;;5064658;28;20045;-94
2023/10/27 04:59:45;;;;;;;1.00;1.00;;;11.20;99.90;;;;;;5040815;28;20051;-95
2023/10/27 05:02:29;;;;;;;1.10;1.10;;;11.20;99.90;;;;;;5025377;28;20036;-94
2023/10/27 05:05:11;;;;;;;1.33;1.33;;;11.00;99.90;;;;;;5021217;28;20056;-95
2023/10/27 05:07:40;;;;;;;1.00;1.00;;;10.90;99.90;;;;;;5036953;28;20064;-95
2023/10/27 05:10:07;;;;;;;1.10;1.10;;;11.00;99.90;;;;;;5008307;28;20060;-94
2023/10/27 05:12:36;;;;;;;1.00;1.00;;;11.00;99.90;;;;;;5031851;28;20118;-95
2023/10/27 05:15:03;;;;;;;0.95;0.95;;;11.20;99.90;;;;;;5039769;28;20117;-95
2023/10/27 05:17:32;;;;;;;1.00;1.00;;;11.10;99.90;;;;;;5057293;28;20128;-95
2023/10/27 05:19:58;;;;;;;1.05;1.05;;;11.00;99.90;;;;;;5052508;28;20045;-93
2023/10/27 05:22:23;;;;;;;1.08;1.08;;;10.90;99.90;;;;;;5041901;28;20052;-93
2023/10/27 05:24:49;;;;;;;1.40;1.33;;;11.00;99.90;;;;;;5035871;28;20044;-94
2023/10/27 05:27:15;;;;;;;0.90;0.90;;;11.00;99.90;;;;;;5017803;28;20046;-92
2023/10/27 05:29:52;;;;;;;1.00;1.00;;;11.20;99.90;;;;;;5024601;28;20068;-95
2023/10/27 05:32:19;;;;;;;1.05;1.05;;;11.00;99.90;;;;;;5051878;28;20036;-94
2023/10/27 05:34:47;;;;;;;1.10;1.10;;;11.20;99.90;;;;;;5039802;28;20059;-93
2023/10/27 05:37:42;;;;;;;1.15;1.15;;;11.30;99.90;;;;;;5025761;28;20578;-95
2023/10/27 05:40:14;;;;;;;1.00;1.00;;;11.00;99.90;;;;;;5047882;28;20045;-94
2023/10/27 05:42:43;;;;;;;0.90;0.90;;;11.20;99.90;;;;;;5023290;28;20048;-92
2023/10/27 05:45:32;;;;;;;1.10;1.10;;;11.30;99.90;;;;;;5028502;28;20037;-95
2023/10/27 05:48:01;;;;;;;1.02;1.02;;;11.30;99.90;;;;;;5012033;28;20060;-95
2023/10/27 05:50:29;;;;;;;1.00;1.00;;;11.30;99.90;;;;;;5022329;28;20502;-95
2023/10/27 05:52:55;;;;;;;1.00;1.00;;;11.10;99.90;;;;;;5022569;28;20053;-93
2023/10/27 05:55:21;;;;;;;1.10;1.10;;;10.90;99.90;;;;;;5037643;28;20048;-93
2023/10/27 05:57:47;;;;;;;0.98;0.98;;;11.30;99.90;;;;;;5024865;28;20044;-94
2023/10/27 06:00:13;;;;;;;1.00;1.00;;;11.00;99.90;;;;;;5025176;28;20445;-92
2023/10/27 06:02:39;;;;;;;0.95;0.95;;;10.90;99.90;;;;;;5026429;28;20044;-91
2023/10/27 06:05:05;;;;;;;1.00;1.00;;;11.10;99.90;;;;;;5056519;28;20048;-93
2023/10/27 06:07:30;;;;;;;1.05;1.05;;;10.90;99.90;;;;;;5027415;28;20045;-92
2023/10/27 06:09:56;;;;;;;1.00;1.00;;;11.00;99.90;;;;;;5027290;28;20490;-88
2023/10/27 06:12:22;;;;;;;1.00;1.00;;;11.10;99.90;;;;;;5038684;28;20041;-90
2023/10/27 06:14:48;;;;;;;1.00;1.00;;;11.00;99.90;;;;;;5028292;28;20129;-94
2023/10/27 06:17:13;;;;;;;1.10;1.10;;;11.10;99.90;;;;;;5042156;28;20168;-91
2023/10/27 06:19:39;;;;;;;1.00;1.00;;;11.10;99.90;;;;;;5030516;28;20055;-93
2023/10/27 06:22:08;;;;;;;1.10;1.10;;;11.30;99.90;;;;;;5050027;28;20044;-92
2023/10/27 06:24:47;;;;;;;;;;;;;;;;;;;;;
2023/10/27 06:27:17;;;;;;;1.13;1.13;;;11.00;99.90;;;;;;5051344;28;20080;-92
2023/10/27 06:29:43;;;;;;;1.00;1.00;;;11.10;99.90;;;;;;5029436;28;20045;-88
2023/10/27 06:32:12;;;;;;;1.00;1.00;;;10.90;99.90;;;;;;5013109;28;20399;-92
2023/10/27 06:34:38;;;;;;;1.00;1.00;;;11.20;99.90;;;;;;5033488;28;20032;-88
2023/10/27 06:37:05;;;;;;;1.13;1.13;;;10.90;99.90;;;;;;5046041;28;20093;-92
2023/10/27 06:39:31;;;;;;;1.10;1.10;;;10.90;99.90;;;;;;5036567;28;20059;-90
2023/10/27 06:41:56;;;;;;;0.90;0.90;;;10.90;99.90;;;;;;5021331;28;20800;-90
2023/10/27 06:44:22;;;;;;;1.00;1.00;;;11.30;99.90;;;;;;5028390;28;20131;-90
2023/10/27 06:47:12;;;;;;;1.00;1.00;;;11.10;99.90;;;;;;5022615;28;20131;-90
2023/10/27 06:49:38;;;;;;;1.00;1.00;;;10.90;99.90;;;;;;5014648;28;20046;-93
2023/10/27 06:52:03;;;;;;;1.00;1.00;;;11.10;99.90;;;;;;5047278;28;20454;-91
2023/10/27 06:54:32;;;;;;;1.00;1.00;;;11.00;99.90;;;;;;5041754;28;20636;-90
2023/10/27 06:56:58;;;;;;;1.00;1.00;;;11.10;99.90;;;;;;5038217;28;20041;-89
2023/10/27 06:59:24;;;;;;;1.17;1.17;;;11.30;99.90;;;;;;5058338;28;20054;-90
2023/10/27 07:01:52;;;;;;;1.00;1.00;;;11.30;99.90;;;;;;5026756;28;20036;-92
2023/10/27 07:04:17;;;;;;;1.00;1.00;;;11.10;99.90;;;;;;5025926;28;20044;-93
2023/10/27 07:06:44;;;;;;;1.10;1.10;;;11.20;99.90;;;;;;5038690;28;20043;-89
2023/10/27 07:09:09;;;;;;;0.93;0.93;;;11.10;99.90;;;;;;5023659;28;20051;-91
2023/10/27 07:11:35;;;;;;;1.00;1.00;;;11.10;99.90;;;;;;5039731;28;20036;-91
2023/10/27 07:14:04;;;;;;;1.10;1.10;;;11.20;99.90;;;;;;5028506;28;20060;-90
2023/10/27 07:16:30;;;;;;;1.02;1.02;;;11.10;99.90;;;;;;5028104;28;20044;-91
2023/10/27 07:18:56;;;;;;;1.00;1.00;;;11.40;99.90;;;;;;5041877;28;20048;-94
2023/10/27 07:21:25;;;;;;;0.90;0.90;;;11.00;99.90;;;;;;5036758;28;20083;-96
2023/10/27 07:24:13;;;;;;;1.08;1.08;;;11.30;99.90;;;;;;5016394;28;20037;-96
2023/10/27 07:26:42;;;;;;;1.02;1.02;;;11.00;99.90;;;;;;5018896;28;20049;-93
2023/10/27 07:29:07;;;;;;;1.10;1.10;;;11.10;99.90;;;;;;5026195;28;20044;-89
2023/10/27 07:31:34;;;;;;;1.00;1.00;;;11.20;99.90;;;;;;5028230;28;20037;-93
2023/10/27 07:33:59;;;;;;;1.00;1.00;;;11.40;99.90;;;;;;5044597;28;20099;-94
2023/10/27 07:36:26;;;;;;;1.40;1.30;;;11.40;99.90;;;;;;5012282;28;20072;-95
2023/10/27 07:38:55;;;;;;;1.00;1.00;;;11.20;99.90;;;;;;5025271;28;20070;-89
2023/10/27 07:41:21;;;;;;;1.00;1.00;;;11.00;99.90;;;;;;5039168;28;20040;-92
2023/10/27 07:43:47;;;;;;;1.10;1.10;;;11.00;99.90;;;;;;5026153;28;20052;-93
2023/10/27 07:46:13;;;;;;;1.00;1.00;;;11.10;99.90;;;;;;5020984;28;20041;-91
2023/10/27 07:48:42;;;;;;;1.10;1.10;;;11.30;99.90;;;;;;5026961;28;20046;-90
2023/10/27 07:51:08;;;;;;;1.10;1.10;;;11.10;99.90;;;;;;5021902;28;20041;-89
2023/10/27 07:53:33;;;;;;;1.10;1.10;;;11.40;99.90;;;;;;5024438;28;20044;-89
2023/10/27 07:55:59;;;;;;;1.00;1.00;;;11.30;99.90;;;;;;5025247;28;20491;-92
2023/10/27 07:58:25;;;;;;;1.00;1.00;;;11.40;99.90;;;;;;5035065;28;20055;-89
2023/10/27 08:00:52;;;;;;;0.95;0.95;;;11.20;99.90;;;;;;5024430;28;20045;-89
2023/10/27 08:03:21;;;;;;;1.10;1.10;;;11.40;99.90;;;;;;5020021;28;20055;-91
2023/10/27 08:05:48;;;;;;;1.08;1.08;;;11.30;99.90;;;;;;5024911;28;20219;-91
2023/10/27 08:08:14;;;;;;;1.05;1.05;;;11.20;99.90;;;;;;5026447;28;20047;-91
2023/10/27 08:10:40;;;;;;;1.00;1.00;;;11.50;99.90;;;;;;5021375;28;20049;-92
2023/10/27 08:13:07;;;;;;;1.00;1.00;;;11.20;99.90;;;;;;5038107;28;20060;-90
2023/10/27 08:15:33;;;;;;;1.10;1.10;;;11.20;99.90;;;;;;5016581;28;20254;-87
2023/10/27 08:17:59;;;;;;;1.10;1.10;;;11.60;99.90;;;;;;5044796;28;20033;-90
2023/10/27 08:20:25;;;;;;;1.00;1.00;;;11.30;99.90;;;;;;5033149;28;20067;-88
2023/10/27 08:22:50;;;;;;;1.10;1.10;;;11.20;99.90;;;;;;5034650;28;20490;-88
2023/10/27 08:25:16;;;;;;;0.90;0.90;;;11.50;99.90;;;;;;5032625;28;20036;-90
2023/10/27 08:27:42;;;;;;;1.10;1.10;;;11.50;99.90;;;;;;5064552;28;20041;-88
2023/10/27 08:30:08;;;;;;;1.00;1.00;;;11.60;99.90;;;;;;5033470;28;20802;-88
2023/10/27 08:32:34;;;;;;;1.00;1.00;;;11.20;99.90;;;;;;5033625;28;20044;-88
2023/10/27 08:34:59;;;;;;;1.10;1.10;;;11.30;99.90;;;;;;5034838;28;20056;-89
2023/10/27 08:37:26;;;;;;;1.10;1.10;;;11.50;99.90;;;;;;5036045;28;20033;-89
2023/10/27 08:39:52;;;;;;;1.05;1.05;;;11.30;99.90;;;;;;5039245;28;20056;-87
2023/10/27 08:42:18;;;;;;;0.98;0.98;;;11.10;99.90;;;;;;5036633;28;20071;-88
2023/10/27 08:44:45;;;;;;;1.10;1.10;;;11.10;99.90;;;;;;5052088;28;20143;-89
2023/10/27 08:47:12;;;;;;;1.00;1.00;;;11.60;99.90;;;;;;5035882;28;20052;-89
2023/10/27 08:49:38;;;;;;;1.10;1.10;;;11.10;99.90;;;;;;5068811;28;20164;-89
2023/10/27 08:52:04;;;;;;;1.00;1.00;;;11.20;99.90;;;;;;5034405;28;20048;-90
2023/10/27 08:54:31;;;;;;;1.10;1.10;;;11.50;99.90;;;;;;5032068;28;20040;-88
2023/10/27 08:56:56;;;;;;;1.00;1.00;;;11.40;99.90;;;;;;5034911;28;20051;-88
2023/10/27 08:59:25;;;;;;;1.00;1.00;;;11.60;99.90;;;;;;5037595;28;20041;-88
2023/10/27 09:01:53;;;;;;;1.00;1.00;;;11.40;99.90;;;;;;5023656;28;20148;-89
2023/10/27 09:04:23;;;;;;;1.10;1.10;;;11.50;99.90;;;;;;5039085;28;20048;-88
2023/10/27 09:06:49;;;;;;;1.00;1.00;;;11.60;99.90;;;;;;5034131;28;20045;-90
2023/10/27 09:09:15;;;;;;;1.00;1.00;;;11.70;99.90;;;;;;5021985;28;20045;-89
2023/10/27 09:11:47;;;;;;;1.00;1.00;;;11.20;99.90;;;;;;5036818;28;20048;-91
2023/10/27 09:14:30;;;;;;;1.00;1.00;;;11.50;99.90;;;;;;5043865;28;20087;-91
2023/10/27 09:17:07;;;;;;;1.07;1.07;;;11.50;99.90;;;;;;5054041;28;20079;-90
2023/10/27 09:19:34;;;;;;;1.10;1.10;;;11.60;99.90;;;;;;5052535;28;20045;-90
2023/10/27 09:22:00;;;;;;;1.02;1.02;;;11.40;99.90;;;;;;5047712;28;20072;-90
2023/10/27 09:24:27;;;;;;;1.10;1.10;;;11.80;99.90;;;;;;5023373;28;20048;-92
2023/10/27 09:26:59;;;;;;;1.20;1.20;;;11.70;99.90;;;;;;5024662;28;20040;-88
2023/10/27 09:29:30;;;;;;;1.23;1.23;;;11.40;99.90;;;;;;5026333;28;20036;-87
2023/10/27 09:31:56;;;;;;;1.30;1.30;;;11.80;99.90;;;;;;5040211;28;20073;-89
2023/10/27 09:34:26;;;;;;;1.33;1.33;;;11.40;99.90;;;;;;5018929;28;20075;-92
2023/10/27 09:36:58;;;;;;;1.13;1.13;;;11.90;99.90;;;;;;5022638;28;20033;-89
2023/10/27 09:39:25;;;;;;;1.00;1.00;;;11.90;99.90;;;;;;5022132;28;20044;-90
2023/10/27 09:42:07;;;;;;;1.10;1.10;;;11.70;99.90;;;;;;5018944;28;20037;-89
2023/10/27 09:45:01;;;;;;;1.10;1.10;;;11.80;99.90;;;;;;5011822;28;20101;-96
2023/10/27 09:47:33;;;;;;;;;;;11.90;99.90;;;;;;5017557;28;20207;-91
2023/10/27 09:50:06;;;;;;;2.78;2.58;;;11.40;99.90;;;;;;5016507;28;19955;-90
2023/10/27 09:52:39;;;;;;;1.20;1.20;;;11.50;99.90;;;;;;5018797;28;20040;-91
2023/10/27 09:55:05;;;;;;;1.20;1.20;;;11.70;99.90;;;;;;5017876;28;20052;-91
2023/10/27 09:57:32;;;;;;;1.23;1.23;;;11.60;99.90;;;;;;5051529;28;20557;-91
2023/10/27 10:00:03;;;;;;;1.60;1.50;;;11.90;99.90;;;;;;4999781;28;20072;-91
2023/10/27 10:02:30;;;;;;;1.20;1.20;;;11.60;99.90;;;;;;5051758;28;20037;-90
2023/10/27 10:04:56;;;;;;;1.30;1.30;;;11.70;99.90;;;;;;5014694;28;20036;-90
2023/10/27 10:07:38;;;;;;;1.20;1.20;;;11.80;99.90;;;;;;5022104;28;20041;-93
2023/10/27 10:10:35;;;;;;;1.17;1.17;;;12.00;99.90;;;;;;5038303;28;20057;-91
2023/10/27 10:13:17;;;;;;;1.30;1.30;;;12.00;99.90;;;;;;5020222;28;20044;-90
2023/10/27 10:15:45;;;;;;;1.15;1.15;;;11.80;99.90;;;;;;5020334;28;20044;-90
2023/10/27 10:18:20;;;;;;;1.30;1.30;;;11.80;99.90;;;;;;5035082;28;20088;-89
2023/10/27 10:20:47;;;;;;;1.20;1.20;;;12.20;99.90;;;;;;5037262;28;20053;-90
2023/10/27 10:23:17;;;;;;;1.35;1.35;;;12.20;99.90;;;;;;5022390;28;20136;-91
2023/10/27 10:25:50;;;;;;;1.10;1.10;;;12.10;99.90;;;;;;5022594;28;20073;-92
2023/10/27 10:28:16;;;;;;;1.10;1.10;;;12.30;99.90;;;;;;5027631;28;20045;-89
2023/10/27 10:30:44;;;;;;;1.10;1.10;;;11.70;99.90;;;;;;5023264;28;20053;-91
2023/10/27 10:33:48;;;;;;;1.10;1.10;;;12.20;99.90;;;;;;5054952;28;20048;-92
2023/10/27 10:36:22;;;;;;;1.10;1.10;;;11.90;99.90;;;;;;5022356;28;20130;-90
2023/10/27 10:39:03;;;;;;;1.10;1.10;;;12.00;99.90;;;;;;5023339;28;20123;-90
2023/10/27 10:41:44;;;;;;;1.10;1.10;;;12.20;99.90;;;;;;5017990;28;20079;-88
2023/10/27 10:44:14;;;;;;;1.10;1.10;;;12.30;99.90;;;;;;5036220;28;20045;-92
2023/10/27 10:46:41;;;;;;;1.10;1.10;;;11.90;99.90;;;;;;5021518;28;20174;-94
2023/10/27 10:49:24;;;;;;;;;;;12.00;99.90;;;;;;5037710;28;20045;-90
2023/10/27 10:51:56;;;;;;;1.17;1.17;;;12.10;99.90;;;;;;5021533;28;19997;-91
2023/10/27 10:54:29;;;;;;;1.10;1.10;;;12.00;99.90;;;;;;5043652;28;20183;-96
2023/10/27 10:57:32;;;;;;;1.35;1.35;;;12.40;99.90;;;;;;5018047;28;20061;-90
2023/10/27 10:59:58;;;;;;;1.20;1.20;;;12.10;99.90;;;;;;5029045;28;20035;-94
2023/10/27 11:02:24;;;;;;;1.20;1.20;;;12.00;99.90;;;;;;5024096;28;20481;-90
2023/10/27 11:04:51;;;;;;;1.10;1.10;;;11.90;99.90;;;;;;5037445;28;20051;-90
2023/10/27 11:07:18;;;;;;;1.10;1.10;;;12.20;99.90;;;;;;5021724;28;20063;-89
2023/10/27 11:09:44;;;;;;;1.08;1.08;;;12.20;99.90;;;;;;5020456;28;20041;-90
2023/10/27 11:12:25;;;;;;;1.00;1.00;;;12.10;99.90;;;;;;5024314;28;20047;-91
2023/10/27 11:14:51;;;;;;;1.10;1.10;;;12.20;99.90;;;;;;5055310;28;20127;-91
2023/10/27 11:17:17;;;;;;;1.13;1.13;;;12.20;99.90;;;;;;5035199;28;20147;-90
2023/10/27 11:20:20;;;;;;;;;;;;;;;;;;;;;
2023/10/27 11:23:10;;;;;;;1.10;1.10;;;12.30;99.90;;;;;;5036065;28;20539;-91
2023/10/27 11:25:36;;;;;;;1.10;1.10;;;11.90;99.90;;;;;;5018246;28;20128;-89
2023/10/27 11:28:23;;;;;;;1.10;1.10;;;12.10;99.90;;;;;;5025519;28;20128;-92
2023/10/27 11:31:19;;;;;;;1.10;1.10;;;12.30;99.90;;;;;;5052755;28;20487;-92
2023/10/27 11:34:03;;;;;;;1.20;1.20;;;11.90;99.90;;;;;;5024646;28;20079;-90
2023/10/27 11:36:31;;;;;;;1.60;1.50;;;12.30;99.90;;;;;;5036433;28;20045;-90
2023/10/27 11:39:17;;;;;;;1.08;1.08;;;12.00;99.90;;;;;;5051717;28;20036;-90
2023/10/27 11:42:04;;;;;;;1.30;1.30;;;12.00;99.90;;;;;;5018304;28;20059;-89
2023/10/27 11:44:31;;;;;;;1.35;1.35;;;12.30;99.90;;;;;;5035564;28;20059;-90
2023/10/27 11:46:58;;;;;;;1.10;1.10;;;12.20;99.90;;;;;;5028291;28;20317;-90
2023/10/27 11:49:25;;;;;;;1.27;1.27;;;12.50;99.90;;;;;;5048161;28;20131;-90
2023/10/27 11:51:53;;;;;;;1.35;1.33;;;12.50;99.90;;;;;;5022779;28;20068;-90
2023/10/27 11:54:20;;;;;;;1.50;1.40;;;12.70;99.90;;;;;;5019442;28;20051;-89
2023/10/27 11:56:46;;;;;;;1.20;1.20;;;12.50;99.90;;;;;;5024889;28;20071;-90
2023/10/27 11:59:12;;;;;;;1.15;1.15;;;12.40;99.90;;;;;;5054493;28;20048;-93
2023/10/27 12:01:39;;;;;;;1.20;1.20;;;12.20;99.90;;;;;;5035328;28;20846;-88
2023/10/27 12:04:10;;;;;;;1.30;1.30;;;12.70;99.90;;;;;;5018794;28;20048;-90
2023/10/27 12:06:40;;;;;;;1.10;1.10;;;12.10;99.90;;;;;;5048280;28;20049;-90
2023/10/27 12:09:07;;;;;;;1.15;1.15;;;12.50;99.90;;;;;;5068116;28;20524;-90
2023/10/27 12:11:33;;;;;;;1.20;1.20;;;12.50;99.90;;;;;;5051127;28;20047;-89
2023/10/27 12:13:59;;;;;;;1.23;1.23;;;12.50;99.90;;;;;;5038549;28;20048;-90
2023/10/27 12:16:27;;;;;;;1.10;1.10;;;12.50;99.90;;;;;;5021414;28;20510;-88
2023/10/27 12:18:55;;;;;;;1.30;1.30;;;12.20;99.90;;;;;;5019623;28;20040;-92
2023/10/27 12:21:25;;;;;;;1.20;1.20;;;12.50;99.90;;;;;;5055756;28;20044;-90
2023/10/27 12:23:52;;;;;;;1.20;1.20;;;12.40;99.90;;;;;;5055570;28;20122;-88
2023/10/27 12:26:19;;;;;;;1.20;1.20;;;12.30;99.90;;;;;;5048606;28;20104;-91
2023/10/27 12:28:46;;;;;;;1.17;1.17;;;12.30;99.90;;;;;;5017647;28;20037;-90
2023/10/27 12:31:13;;;;;;;1.13;1.13;;;12.30;99.90;;;;;;5020376;28;20110;-88
2023/10/27 12:33:39;;;;;;;1.20;1.20;;;12.70;99.90;;;;;;5021674;28;20040;-89
2023/10/27 12:36:09;;;;;;;1.20;1.20;;;12.30;99.90;;;;;;5018237;28;20033;-89
2023/10/27 12:38:35;;;;;;;1.30;1.30;;;12.30;99.90;;;;;;5021570;28;20041;-89
2023/10/27 12:41:01;;;;;;;1.20;1.20;;;12.20;99.90;;;;;;5020053;28;20098;-89
2023/10/27 12:43:26;;;;;;;1.20;1.20;;;12.20;99.90;;;;;;5033271;28;20041;-91
2023/10/27 12:45:52;;;;;;;1.20;1.20;;;12.30;99.90;;;;;;5017447;28;20479;-89
2023/10/27 12:48:18;;;;;;;1.20;1.20;;;12.80;99.90;;;;;;5039325;28;20044;-89
2023/10/27 12:50:44;;;;;;;1.20;1.20;;;12.70;99.90;;;;;;5044155;28;20044;-92
2023/10/27 12:53:11;;;;;;;1.30;1.30;;;12.70;99.90;;;;;;5015986;28;20126;-89
2023/10/27 12:55:38;;;;;;;1.25;1.25;;;12.80;99.90;;;;;;5019300;28;20044;-89
2023/10/27 12:58:04;;;;;;;1.30;1.30;;;12.60;99.90;;;;;;5037193;28;20511;-89